sensor_id;sensor_type;location;lat;lon;timestamp;pressure;altitude;pressure_sealevel;temperature;humidity
49999;BME280;68071;45.062;7.356;2023-05-02T00:01:48;95048.97;;;7.76;100.00
49999;BME280;68071;45.062;7.356;2023-05-02T00:04:52;95043.88;;;7.78;100.00
49999;BME280;68071;45.062;7.356;2023-05-02T00:07:56;95045.06;;;8.02;100.00
49999;BME280;68071;45.062;7.356;2023-05-02T00:11:00;95049.75;;;8.16;100.00
49999;BME280;68071;45.062;7.356;2023-05-02T00:14:04;95039.91;;;8.26;100.00
49999;BME280;68071;45.062;7.356;2023-05-02T00:17:08;95039.56;;;8.13;100.00
49999;BME280;68071;45.062;7.356;2023-05-02T00:20:12;95036.75;;;8.24;100.00
49999;BME280;68071;45.062;7.356;2023-05-02T00:23:16;95033.59;;;8.54;100.00
49999;BME280;68071;45.062;7.356;2023-05-02T00:26:21;95038.34;;;8.28;100.00
49999;BME280;68071;45.062;7.356;2023-05-02T00:29:25;95036.78;;;8.09;100.00
49999;BME280;68071;45.062;7.356;2023-05-02T00:32:29;95035.63;;;8.17;100.00
49999;BME280;68071;45.062;7.356;2023-05-02T00:35:33;95028.16;;;8.03;100.00
49999;BME280;68071;45.062;7.356;2023-05-02T00:38:37;95032.47;;;7.72;100.00
49999;BME280;68071;45.062;7.356;2023-05-02T00:41:41;95024.22;;;7.68;100.00
49999;BME280;68071;45.062;7.356;2023-05-02T00:44:45;95021.47;;;7.72;100.00
49999;BME280;68071;45.062;7.356;2023-05-02T00:47:49;95018.31;;;7.70;100.00
49999;BME280;68071;45.062;7.356;2023-05-02T00:50:54;95021.88;;;7.81;100.00
49999;BME280;68071;45.062;7.356;2023-05-02T00:53:59;95017.53;;;7.62;100.00
49999;BME280;68071;45.062;7.356;2023-05-02T00:57:04;95016.75;;;7.65;100.00
49999;BME280;68071;45.062;7.356;2023-05-02T01:00:08;95009.69;;;7.75;100.00
49999;BME280;68071;45.062;7.356;2023-05-02T01:03:22;95009.28;;;7.77;100.00
49999;BME280;68071;45.062;7.356;2023-05-02T01:10:13;95007.31;;;7.95;100.00
49999;BME280;68071;45.062;7.356;2023-05-02T01:13:24;95000.25;;;7.98;100.00
49999;BME280;68071;45.062;7.356;2023-05-02T01:16:30;94999.06;;;7.70;100.00
49999;BME280;68071;45.062;7.356;2023-05-02T01:19:38;94999.06;;;7.70;100.00
49999;BME280;68071;45.062;7.356;2023-05-02T01:22:43;95000.66;;;7.75;100.00
49999;BME280;68071;45.062;7.356;2023-05-02T01:29:10;95003.00;;;7.76;100.00
49999;BME280;68071;45.062;7.356;2023-05-02T01:32:19;94992.78;;;7.73;100.00
49999;BME280;68071;45.062;7.356;2023-05-02T01:35:26;94995.94;;;7.71;100.00
49999;BME280;68071;45.062;7.356;2023-05-02T01:38:32;95002.22;;;7.65;100.00
49999;BME280;68071;45.062;7.356;2023-05-02T01:41:38;94996.69;;;7.61;100.00
49999;BME280;68071;45.062;7.356;2023-05-02T01:44:43;94990.81;;;7.81;100.00
49999;BME280;68071;45.062;7.356;2023-05-02T01:47:49;94994.75;;;7.69;100.00
49999;BME280;68071;45.062;7.356;2023-05-02T01:51:04;94984.91;;;7.64;100.00
49999;BME280;68071;45.062;7.356;2023-05-02T01:54:12;94979.81;;;7.63;100.00
49999;BME280;68071;45.062;7.356;2023-05-02T01:57:17;94989.63;;;7.71;100.00
49999;BME280;68071;45.062;7.356;2023-05-02T02:00:22;94979.81;;;7.66;100.00
49999;BME280;68071;45.062;7.356;2023-05-02T02:03:29;94985.31;;;7.70;100.00
49999;BME280;68071;45.062;7.356;2023-05-02T02:06:34;94985.69;;;7.86;100.00
49999;BME280;68071;45.062;7.356;2023-05-02T02:09:39;94975.03;;;8.14;100.00
49999;BME280;68071;45.062;7.356;2023-05-02T02:12:55;94991.16;;;8.15;100.00
49999;BME280;68071;45.062;7.356;2023-05-02T02:16:04;94982.88;;;8.37;100.00
49999;BME280;68071;45.062;7.356;2023-05-02T02:19:13;94985.22;;;8.39;100.00
49999;BME280;68071;45.062;7.356;2023-05-02T02:22:19;94993.06;;;8.51;100.00
49999;BME280;68071;45.062;7.356;2023-05-02T02:25:25;94983.63;;;8.48;100.00
49999;BME280;68071;45.062;7.356;2023-05-02T02:28:29;94986.47;;;7.98;100.00
49999;BME280;68071;45.062;7.356;2023-05-02T02:31:35;94996.72;;;7.90;100.00
49999;BME280;68071;45.062;7.356;2023-05-02T02:34:40;94999.47;;;8.01;100.00
49999;BME280;68071;45.062;7.356;2023-05-02T02:38:04;94997.84;;;8.14;100.00
49999;BME280;68071;45.062;7.356;2023-05-02T02:41:22;94995.91;;;8.08;100.00
49999;BME280;68071;45.062;7.356;2023-05-02T02:44:39;94991.59;;;7.67;100.00
49999;BME280;68071;45.062;7.356;2023-05-02T02:47:57;95000.63;;;7.42;100.00
49999;BME280;68071;45.062;7.356;2023-05-02T02:51:30;94995.91;;;7.39;100.00
49999;BME280;68071;45.062;7.356;2023-05-02T02:54:39;95002.59;;;7.38;100.00
49999;BME280;68071;45.062;7.356;2023-05-02T02:57:58;95008.09;;;7.45;100.00
49999;BME280;68071;45.062;7.356;2023-05-02T03:01:04;94999.84;;;7.63;100.00
49999;BME280;68071;45.062;7.356;2023-05-02T03:04:09;95000.25;;;7.36;100.00
49999;BME280;68071;45.062;7.356;2023-05-02T03:07:15;95008.09;;;7.52;100.00
49999;BME280;68071;45.062;7.356;2023-05-02T03:10:21;95015.16;;;7.68;100.00
49999;BME280;68071;45.062;7.356;2023-05-02T03:13:25;95019.88;;;7.85;100.00
49999;BME280;68071;45.062;7.356;2023-05-02T03:16:35;95011.25;;;7.87;100.00
49999;BME280;68071;45.062;7.356;2023-05-02T03:19:42;95016.72;;;8.05;100.00
49999;BME280;68071;45.062;7.356;2023-05-02T03:22:46;95016.72;;;7.44;100.00
49999;BME280;68071;45.062;7.356;2023-05-02T03:25:50;95014.72;;;7.30;100.00
49999;BME280;68071;45.062;7.356;2023-05-02T03:28:59;95015.91;;;7.25;100.00
49999;BME280;68071;45.062;7.356;2023-05-02T03:32:09;95010.00;;;7.19;100.00
49999;BME280;68071;45.062;7.356;2023-05-02T03:35:15;95012.00;;;7.26;100.00
49999;BME280;68071;45.062;7.356;2023-05-02T03:38:22;95013.16;;;7.29;100.00
49999;BME280;68071;45.062;7.356;2023-05-02T03:41:27;95018.28;;;7.26;100.00
49999;BME280;68071;45.062;7.356;2023-05-02T03:44:40;95017.84;;;7.14;100.00
49999;BME280;68071;45.062;7.356;2023-05-02T03:47:44;95016.28;;;7.20;100.00
49999;BME280;68071;45.062;7.356;2023-05-02T03:50:49;95012.38;;;7.24;100.00
49999;BME280;68071;45.062;7.356;2023-05-02T03:53:53;95022.25;;;7.51;100.00
49999;BME280;68071;45.062;7.356;2023-05-02T03:56:57;95006.53;;;7.62;100.00
49999;BME280;68071;45.062;7.356;2023-05-02T04:00:07;94995.94;;;7.61;100.00
49999;BME280;68071;45.062;7.356;2023-05-02T04:03:21;94998.66;;;7.97;100.00
49999;BME280;68071;45.062;7.356;2023-05-02T04:06:27;94986.47;;;7.98;100.00
49999;BME280;68071;45.062;7.356;2023-05-02T04:09:36;94980.22;;;7.57;100.00
49999;BME280;68071;45.062;7.356;2023-05-02T04:12:46;94981.00;;;7.87;100.00
49999;BME280;68071;45.062;7.356;2023-05-02T04:15:52;94988.00;;;8.17;100.00
49999;BME280;68071;45.062;7.356;2023-05-02T04:18:59;94998.28;;;7.95;100.00
49999;BME280;68071;45.062;7.356;2023-05-02T04:22:05;95015.97;;;7.61;100.00
49999;BME280;68071;45.062;7.356;2023-05-02T04:25:13;95005.75;;;7.54;100.00
49999;BME280;68071;45.062;7.356;2023-05-02T04:28:22;95017.47;;;7.30;100.00
49999;BME280;68071;45.062;7.356;2023-05-02T04:31:27;95015.16;;;7.35;100.00
49999;BME280;68071;45.062;7.356;2023-05-02T04:34:31;95009.19;;;7.01;100.00
49999;BME280;68071;45.062;7.356;2023-05-02T04:37:36;95015.16;;;7.53;100.00
49999;BME280;68071;45.062;7.356;2023-05-02T04:40:41;95006.50;;;7.22;100.00
49999;BME280;68071;45.062;7.356;2023-05-02T04:43:46;95006.03;;;6.99;100.00
49999;BME280;68071;45.062;7.356;2023-05-02T04:46:51;95007.97;;;6.91;100.00
49999;BME280;68071;45.062;7.356;2023-05-02T04:49:56;95011.53;;;6.95;100.00
49999;BME280;68071;45.062;7.356;2023-05-02T04:53:00;95007.56;;;6.85;100.00
49999;BME280;68071;45.062;7.356;2023-05-02T04:56:05;95018.50;;;6.74;100.00
49999;BME280;68071;45.062;7.356;2023-05-02T04:59:13;95017.44;;;7.01;100.00
49999;BME280;68071;45.062;7.356;2023-05-02T05:02:17;95018.31;;;7.55;100.00
49999;BME280;68071;45.062;7.356;2023-05-02T05:05:21;95018.69;;;7.43;100.00
49999;BME280;68071;45.062;7.356;2023-05-02T05:08:27;95003.31;;;7.06;100.00
49999;BME280;68071;45.062;7.356;2023-05-02T05:11:31;95008.03;;;7.09;100.00
49999;BME280;68071;45.062;7.356;2023-05-02T05:14:35;95011.66;;;7.64;100.00
49999;BME280;68071;45.062;7.356;2023-05-02T05:17:39;95008.50;;;7.54;100.00
49999;BME280;68071;45.062;7.356;2023-05-02T05:20:44;95005.38;;;7.70;100.00
49999;BME280;68071;45.062;7.356;2023-05-02T05:23:49;95007.69;;;7.97;100.00
49999;BME280;68071;45.062;7.356;2023-05-02T05:27:00;94994.31;;;8.17;100.00
49999;BME280;68071;45.062;7.356;2023-05-02T05:30:05;95003.75;;;8.09;100.00
49999;BME280;68071;45.062;7.356;2023-05-02T05:33:10;95002.16;;;8.30;100.00
49999;BME280;68071;45.062;7.356;2023-05-02T05:36:14;95010.03;;;8.31;100.00
49999;BME280;68071;45.062;7.356;2023-05-02T05:39:18;95017.53;;;8.16;100.00
49999;BME280;68071;45.062;7.356;2023-05-02T05:42:25;95021.84;;;8.28;100.00
49999;BME280;68071;45.062;7.356;2023-05-02T05:45:33;95018.25;;;8.50;100.00
49999;BME280;68071;45.062;7.356;2023-05-02T05:48:37;95016.97;;;8.80;100.00
49999;BME280;68071;45.062;7.356;2023-05-02T05:51:42;95014.06;;;9.19;100.00
49999;BME280;68071;45.062;7.356;2023-05-02T05:54:46;95015.22;;;9.26;100.00
49999;BME280;68071;45.062;7.356;2023-05-02T05:57:50;95016.34;;;9.35;100.00
49999;BME280;68071;45.062;7.356;2023-05-02T06:00:55;95023.03;;;9.31;100.00
49999;BME280;68071;45.062;7.356;2023-05-02T06:04:00;95021.41;;;9.41;100.00
49999;BME280;68071;45.062;7.356;2023-05-02T06:07:05;95038.31;;;9.46;100.00
49999;BME280;68071;45.062;7.356;2023-05-02T06:10:09;95034.41;;;9.40;100.00
49999;BME280;68071;45.062;7.356;2023-05-02T06:13:14;95032.03;;;9.46;100.00
49999;BME280;68071;45.062;7.356;2023-05-02T06:16:20;95049.66;;;9.59;100.00
49999;BME280;68071;45.062;7.356;2023-05-02T06:19:24;95046.09;;;10.15;100.00
49999;BME280;68071;45.062;7.356;2023-05-02T06:22:28;95039.88;;;10.04;100.00
49999;BME280;68071;45.062;7.356;2023-05-02T06:25:32;95044.75;;;9.85;100.00
49999;BME280;68071;45.062;7.356;2023-05-02T06:28:36;95041.75;;;10.18;100.00
49999;BME280;68071;45.062;7.356;2023-05-02T06:31:40;95055.09;;;10.26;100.00
49999;BME280;68071;45.062;7.356;2023-05-02T06:34:44;95059.69;;;10.40;100.00
49999;BME280;68071;45.062;7.356;2023-05-02T06:37:48;95067.53;;;10.49;99.94
49999;BME280;68071;45.062;7.356;2023-05-02T06:40:55;95063.84;;;10.63;100.00
49999;BME280;68071;45.062;7.356;2023-05-02T06:43:59;95075.16;;;10.76;100.00
49999;BME280;68071;45.062;7.356;2023-05-02T06:47:03;95066.00;;;10.83;99.66
49999;BME280;68071;45.062;7.356;2023-05-02T06:50:09;95074.00;;;11.08;100.00
49999;BME280;68071;45.062;7.356;2023-05-02T06:53:14;95065.56;;;11.23;100.00
49999;BME280;68071;45.062;7.356;2023-05-02T06:56:18;95066.50;;;11.40;100.00
49999;BME280;68071;45.062;7.356;2023-05-02T06:59:22;95063.38;;;11.38;100.00
49999;BME280;68071;45.062;7.356;2023-05-02T07:02:26;95069.09;;;11.23;97.84
49999;BME280;68071;45.062;7.356;2023-05-02T07:05:30;95071.75;;;11.61;94.43
49999;BME280;68071;45.062;7.356;2023-05-02T07:08:34;95062.47;;;11.75;96.45
49999;BME280;68071;45.062;7.356;2023-05-02T07:11:38;95066.09;;;12.00;88.87
49999;BME280;68071;45.062;7.356;2023-05-02T07:14:42;95065.59;;;11.77;95.69
49999;BME280;68071;45.062;7.356;2023-05-02T07:17:47;95075.28;;;12.44;92.45
49999;BME280;68071;45.062;7.356;2023-05-02T07:20:52;95080.53;;;12.38;88.69
49999;BME280;68071;45.062;7.356;2023-05-02T07:23:56;95068.31;;;11.81;93.66
49999;BME280;68071;45.062;7.356;2023-05-02T07:27:00;95077.53;;;12.02;90.56
49999;BME280;68071;45.062;7.356;2023-05-02T07:30:05;95092.44;;;12.59;84.83
49999;BME280;68071;45.062;7.356;2023-05-02T07:33:09;95085.94;;;12.69;83.24
49999;BME280;68071;45.062;7.356;2023-05-02T07:36:13;95088.69;;;12.69;82.39
49999;BME280;68071;45.062;7.356;2023-05-02T07:39:18;95088.41;;;12.64;85.12
49999;BME280;68071;45.062;7.356;2023-05-02T07:42:21;95085.56;;;12.44;82.90
49999;BME280;68071;45.062;7.356;2023-05-02T07:45:25;95090.34;;;12.43;87.33
49999;BME280;68071;45.062;7.356;2023-05-02T07:48:29;95085.31;;;12.58;86.99
49999;BME280;68071;45.062;7.356;2023-05-02T07:51:34;95096.34;;;12.38;76.23
49999;BME280;68071;45.062;7.356;2023-05-02T07:54:38;95075.88;;;12.55;81.42
49999;BME280;68071;45.062;7.356;2023-05-02T07:57:41;95074.94;;;13.06;79.42
49999;BME280;68071;45.062;7.356;2023-05-02T08:00:45;95079.56;;;13.13;81.54
49999;BME280;68071;45.062;7.356;2023-05-02T08:03:49;95079.91;;;12.95;79.32
49999;BME280;68071;45.062;7.356;2023-05-02T08:06:53;95071.47;;;12.34;75.79
49999;BME280;68071;45.062;7.356;2023-05-02T08:09:57;95077.91;;;13.36;78.65
49999;BME280;68071;45.062;7.356;2023-05-02T08:13:02;95070.97;;;13.27;84.89
49999;BME280;68071;45.062;7.356;2023-05-02T08:16:06;95066.69;;;13.43;84.86
49999;BME280;68071;45.062;7.356;2023-05-02T08:19:11;95065.09;;;13.62;77.79
49999;BME280;68071;45.062;7.356;2023-05-02T08:22:14;95066.34;;;13.41;79.91
49999;BME280;68071;45.062;7.356;2023-05-02T08:25:19;95078.13;;;13.25;82.56
49999;BME280;68071;45.062;7.356;2023-05-02T08:28:23;95072.41;;;13.72;86.91
49999;BME280;68071;45.062;7.356;2023-05-02T08:31:27;95074.72;;;13.37;78.56
49999;BME280;68071;45.062;7.356;2023-05-02T08:34:31;95071.03;;;13.81;81.53
49999;BME280;68071;45.062;7.356;2023-05-02T08:37:37;95081.91;;;13.91;80.10
49999;BME280;68071;45.062;7.356;2023-05-02T08:40:42;95080.28;;;13.94;83.05
49999;BME280;68071;45.062;7.356;2023-05-02T08:43:47;95084.34;;;13.89;74.53
49999;BME280;68071;45.062;7.356;2023-05-02T08:46:53;95085.50;;;14.42;75.62
49999;BME280;68071;45.062;7.356;2023-05-02T08:49:59;95081.50;;;14.43;65.42
49999;BME280;68071;45.062;7.356;2023-05-02T08:53:08;95084.97;;;14.80;67.58
49999;BME280;68071;45.062;7.356;2023-05-02T08:56:12;95099.06;;;15.19;71.80
49999;BME280;68071;45.062;7.356;2023-05-02T08:59:16;95093.22;;;14.17;73.54
49999;BME280;68071;45.062;7.356;2023-05-02T09:05:42;95092.25;;;14.57;75.55
49999;BME280;68071;45.062;7.356;2023-05-02T09:08:50;95093.09;;;15.04;76.24
49999;BME280;68071;45.062;7.356;2023-05-02T09:11:57;95104.00;;;15.27;75.81
49999;BME280;68071;45.062;7.356;2023-05-02T09:15:15;95094.88;;;15.40;75.87
49999;BME280;68071;45.062;7.356;2023-05-02T09:18:20;95088.16;;;14.95;79.14
49999;BME280;68071;45.062;7.356;2023-05-02T09:21:35;95099.59;;;15.13;80.15
49999;BME280;68071;45.062;7.356;2023-05-02T09:24:53;95093.53;;;15.32;75.58
49999;BME280;68071;45.062;7.356;2023-05-02T09:27:57;95102.94;;;15.51;75.88
49999;BME280;68071;45.062;7.356;2023-05-02T09:31:09;95108.31;;;15.58;70.72
49999;BME280;68071;45.062;7.356;2023-05-02T09:34:16;95107.09;;;15.59;81.88
49999;BME280;68071;45.062;7.356;2023-05-02T09:37:33;95101.81;;;15.91;72.63
49999;BME280;68071;45.062;7.356;2023-05-02T09:40:37;95106.06;;;16.21;74.32
49999;BME280;68071;45.062;7.356;2023-05-02T09:43:42;95105.72;;;16.19;75.03
49999;BME280;68071;45.062;7.356;2023-05-02T09:46:48;95105.38;;;15.91;78.00
49999;BME280;68071;45.062;7.356;2023-05-02T09:49:53;95110.63;;;16.02;80.28
49999;BME280;68071;45.062;7.356;2023-05-02T09:53:04;95123.44;;;15.99;83.89
49999;BME280;68071;45.062;7.356;2023-05-02T09:56:09;95119.66;;;15.93;72.68
49999;BME280;68071;45.062;7.356;2023-05-02T09:59:14;95124.13;;;16.03;78.36
49999;BME280;68071;45.062;7.356;2023-05-02T10:02:19;95130.38;;;16.33;77.25
49999;BME280;68071;45.062;7.356;2023-05-02T10:05:24;95136.38;;;16.19;76.00
49999;BME280;68071;45.062;7.356;2023-05-02T10:08:31;95132.56;;;15.87;78.67
49999;BME280;68071;45.062;7.356;2023-05-02T10:11:38;95137.19;;;16.32;75.14
49999;BME280;68071;45.062;7.356;2023-05-02T10:14:48;95134.72;;;16.47;74.86
49999;BME280;68071;45.062;7.356;2023-05-02T10:17:56;95135.59;;;16.70;71.11
49999;BME280;68071;45.062;7.356;2023-05-02T10:21:05;95127.06;;;16.87;71.87
49999;BME280;68071;45.062;7.356;2023-05-02T10:24:10;95135.16;;;16.72;71.14
49999;BME280;68071;45.062;7.356;2023-05-02T10:27:16;95137.09;;;17.10;72.55
49999;BME280;68071;45.062;7.356;2023-05-02T10:30:21;95139.13;;;16.84;68.45
49999;BME280;68071;45.062;7.356;2023-05-02T10:33:27;95127.88;;;17.22;69.63
49999;BME280;68071;45.062;7.356;2023-05-02T10:36:32;95119.56;;;17.32;70.63
49999;BME280;68071;45.062;7.356;2023-05-02T10:39:36;95127.03;;;17.35;70.45
49999;BME280;68071;45.062;7.356;2023-05-02T10:42:43;95124.06;;;17.74;65.89
49999;BME280;68071;45.062;7.356;2023-05-02T10:45:48;95122.63;;;17.47;70.66
49999;BME280;68071;45.062;7.356;2023-05-02T10:52:44;95108.25;;;17.80;68.49
49999;BME280;68071;45.062;7.356;2023-05-02T10:59:41;95101.97;;;17.66;67.83
49999;BME280;68071;45.062;7.356;2023-05-02T11:02:46;95101.44;;;18.03;63.98
49999;BME280;68071;45.062;7.356;2023-05-02T11:06:05;95098.09;;;17.95;68.15
49999;BME280;68071;45.062;7.356;2023-05-02T11:18:58;95094.25;;;17.26;68.70
49999;BME280;68071;45.062;7.356;2023-05-02T11:25:35;95096.53;;;17.63;63.82
49999;BME280;68071;45.062;7.356;2023-05-02T11:28:41;95089.03;;;17.60;65.82
49999;BME280;68071;45.062;7.356;2023-05-02T11:34:54;95085.78;;;17.83;68.83
49999;BME280;68071;45.062;7.356;2023-05-02T11:38:03;95084.78;;;17.77;62.33
49999;BME280;68071;45.062;7.356;2023-05-02T11:41:07;95080.59;;;17.73;67.87
49999;BME280;68071;45.062;7.356;2023-05-02T11:44:11;95072.63;;;17.93;65.97
49999;BME280;68071;45.062;7.356;2023-05-02T11:47:15;95065.66;;;17.98;61.82
49999;BME280;68071;45.062;7.356;2023-05-02T11:50:20;95072.84;;;18.49;58.79
49999;BME280;68071;45.062;7.356;2023-05-02T11:53:26;95072.56;;;18.16;61.83
49999;BME280;68071;45.062;7.356;2023-05-02T11:56:31;95079.09;;;18.12;64.71
49999;BME280;68071;45.062;7.356;2023-05-02T11:59:50;95069.47;;;18.13;63.12
49999;BME280;68071;45.062;7.356;2023-05-02T12:02:55;95069.63;;;18.19;62.54
49999;BME280;68071;45.062;7.356;2023-05-02T12:06:10;95060.63;;;18.15;69.38
49999;BME280;68071;45.062;7.356;2023-05-02T12:09:14;95073.81;;;18.14;63.62
49999;BME280;68071;45.062;7.356;2023-05-02T12:12:23;95067.19;;;18.31;61.97
49999;BME280;68071;45.062;7.356;2023-05-02T12:15:27;95060.16;;;18.26;60.90
49999;BME280;68071;45.062;7.356;2023-05-02T12:18:32;95063.53;;;18.02;61.91
49999;BME280;68071;45.062;7.356;2023-05-02T12:21:36;95057.47;;;18.63;57.75
49999;BME280;68071;45.062;7.356;2023-05-02T12:24:41;95068.94;;;18.47;63.18
49999;BME280;68071;45.062;7.356;2023-05-02T12:28:00;95050.34;;;18.62;64.21
49999;BME280;68071;45.062;7.356;2023-05-02T12:31:10;95056.94;;;18.27;58.75
49999;BME280;68071;45.062;7.356;2023-05-02T12:34:31;95053.94;;;18.72;57.13
49999;BME280;68071;45.062;7.356;2023-05-02T12:37:35;95056.63;;;19.13;55.42
49999;BME280;68071;45.062;7.356;2023-05-02T12:40:54;95050.19;;;18.84;52.43
49999;BME280;68071;45.062;7.356;2023-05-02T12:44:02;95044.16;;;19.04;52.04
49999;BME280;68071;45.062;7.356;2023-05-02T12:47:08;95049.13;;;19.28;49.77
49999;BME280;68071;45.062;7.356;2023-05-02T12:50:13;95047.22;;;18.88;51.05
49999;BME280;68071;45.062;7.356;2023-05-02T12:53:40;95043.38;;;19.04;58.42
49999;BME280;68071;45.062;7.356;2023-05-02T12:56:44;95041.81;;;19.22;49.97
49999;BME280;68071;45.062;7.356;2023-05-02T12:59:53;95039.72;;;19.59;39.71
49999;BME280;68071;45.062;7.356;2023-05-02T13:02:57;95033.78;;;19.67;46.43
49999;BME280;68071;45.062;7.356;2023-05-02T13:06:02;95034.06;;;19.78;52.40
49999;BME280;68071;45.062;7.356;2023-05-02T13:09:06;95038.28;;;19.83;47.33
49999;BME280;68071;45.062;7.356;2023-05-02T13:12:10;95031.88;;;19.82;49.83
49999;BME280;68071;45.062;7.356;2023-05-02T13:15:14;95032.41;;;19.62;53.40
49999;BME280;68071;45.062;7.356;2023-05-02T13:18:18;95040.91;;;19.77;51.57
49999;BME280;68071;45.062;7.356;2023-05-02T13:21:22;95039.03;;;19.03;51.85
49999;BME280;68071;45.062;7.356;2023-05-02T13:24:26;95031.81;;;19.48;48.54
49999;BME280;68071;45.062;7.356;2023-05-02T13:27:30;95033.06;;;19.47;49.19
49999;BME280;68071;45.062;7.356;2023-05-02T13:30:34;95031.47;;;19.65;55.22
49999;BME280;68071;45.062;7.356;2023-05-02T13:33:39;95035.72;;;19.42;56.56
49999;BME280;68071;45.062;7.356;2023-05-02T13:36:43;95036.81;;;19.44;53.68
49999;BME280;68071;45.062;7.356;2023-05-02T13:39:48;95038.28;;;19.73;54.04
49999;BME280;68071;45.062;7.356;2023-05-02T13:42:52;95030.19;;;19.85;48.91
49999;BME280;68071;45.062;7.356;2023-05-02T13:45:56;95030.69;;;19.64;50.42
49999;BME280;68071;45.062;7.356;2023-05-02T13:49:01;95035.28;;;19.86;50.74
49999;BME280;68071;45.062;7.356;2023-05-02T13:52:06;95025.31;;;19.85;49.96
49999;BME280;68071;45.062;7.356;2023-05-02T13:55:10;95027.50;;;19.81;48.54
49999;BME280;68071;45.062;7.356;2023-05-02T13:58:14;95030.28;;;20.00;48.50
49999;BME280;68071;45.062;7.356;2023-05-02T14:01:18;95025.53;;;20.15;48.17
49999;BME280;68071;45.062;7.356;2023-05-02T14:04:22;95027.72;;;20.45;43.87
49999;BME280;68071;45.062;7.356;2023-05-02T14:07:26;95022.28;;;20.41;46.68
49999;BME280;68071;45.062;7.356;2023-05-02T14:10:30;95019.88;;;20.24;52.00
49999;BME280;68071;45.062;7.356;2023-05-02T14:13:34;95015.53;;;20.23;47.30
49999;BME280;68071;45.062;7.356;2023-05-02T14:16:38;95016.84;;;20.13;50.42
49999;BME280;68071;45.062;7.356;2023-05-02T14:19:42;95024.78;;;20.39;51.25
49999;BME280;68071;45.062;7.356;2023-05-02T14:22:46;95017.16;;;20.39;51.19
49999;BME280;68071;45.062;7.356;2023-05-02T14:25:50;95020.56;;;20.44;47.12
49999;BME280;68071;45.062;7.356;2023-05-02T14:28:54;95013.16;;;19.98;51.34
49999;BME280;68071;45.062;7.356;2023-05-02T14:31:59;95014.47;;;20.21;50.45
49999;BME280;68071;45.062;7.356;2023-05-02T14:35:04;95012.84;;;20.53;47.19
49999;BME280;68071;45.062;7.356;2023-05-02T14:38:08;95018.91;;;20.61;49.13
49999;BME280;68071;45.062;7.356;2023-05-02T14:41:13;95022.28;;;20.65;48.86
49999;BME280;68071;45.062;7.356;2023-05-02T14:44:17;95017.81;;;20.59;48.31
49999;BME280;68071;45.062;7.356;2023-05-02T14:47:21;95017.72;;;21.16;46.96
49999;BME280;68071;45.062;7.356;2023-05-02T14:50:25;95016.25;;;21.21;47.34
49999;BME280;68071;45.062;7.356;2023-05-02T14:53:30;95019.97;;;21.57;47.13
49999;BME280;68071;45.062;7.356;2023-05-02T14:56:34;95006.59;;;20.59;53.16
49999;BME280;68071;45.062;7.356;2023-05-02T14:59:38;95019.72;;;21.01;48.88
49999;BME280;68071;45.062;7.356;2023-05-02T15:02:43;95019.53;;;21.74;45.35
49999;BME280;68071;45.062;7.356;2023-05-02T15:05:47;95014.56;;;22.49;44.79
49999;BME280;68071;45.062;7.356;2023-05-02T15:08:51;95016.81;;;22.30;45.62
49999;BME280;68071;45.062;7.356;2023-05-02T15:11:55;95024.34;;;22.54;43.09
49999;BME280;68071;45.062;7.356;2023-05-02T15:14:59;95020.44;;;22.31;43.30
49999;BME280;68071;45.062;7.356;2023-05-02T15:18:03;95021.81;;;22.56;41.83
49999;BME280;68071;45.062;7.356;2023-05-02T15:21:07;95025.53;;;22.47;40.36
49999;BME280;68071;45.062;7.356;2023-05-02T15:24:11;95029.56;;;22.26;42.47
49999;BME280;68071;45.062;7.356;2023-05-02T15:27:15;95028.41;;;21.57;43.87
49999;BME280;68071;45.062;7.356;2023-05-02T15:30:19;95026.25;;;22.27;42.99
49999;BME280;68071;45.062;7.356;2023-05-02T15:33:23;95023.22;;;22.66;42.18
49999;BME280;68071;45.062;7.356;2023-05-02T15:36:28;95023.66;;;22.80;40.76
49999;BME280;68071;45.062;7.356;2023-05-02T15:39:32;95030.28;;;22.41;42.01
49999;BME280;68071;45.062;7.356;2023-05-02T15:42:36;95025.13;;;22.75;42.94
49999;BME280;68071;45.062;7.356;2023-05-02T15:45:41;95027.38;;;22.50;41.71
49999;BME280;68071;45.062;7.356;2023-05-02T15:48:45;95037.44;;;22.99;38.68
49999;BME280;68071;45.062;7.356;2023-05-02T15:51:49;95034.50;;;23.29;40.53
49999;BME280;68071;45.062;7.356;2023-05-02T15:54:53;95035.84;;;23.60;39.80
49999;BME280;68071;45.062;7.356;2023-05-02T15:57:58;95038.28;;;23.72;38.90
49999;BME280;68071;45.062;7.356;2023-05-02T16:01:02;95040.88;;;23.76;39.01
49999;BME280;68071;45.062;7.356;2023-05-02T16:04:07;95037.25;;;23.02;40.08
49999;BME280;68071;45.062;7.356;2023-05-02T16:07:12;95041.56;;;22.77;39.60
49999;BME280;68071;45.062;7.356;2023-05-02T16:10:17;95039.88;;;23.26;39.90
49999;BME280;68071;45.062;7.356;2023-05-02T16:13:20;95056.78;;;23.26;39.26
49999;BME280;68071;45.062;7.356;2023-05-02T16:16:26;95051.22;;;22.04;44.18
49999;BME280;68071;45.062;7.356;2023-05-02T16:19:30;95057.03;;;22.31;41.84
49999;BME280;68071;45.062;7.356;2023-05-02T16:22:34;95060.28;;;22.80;41.05
49999;BME280;68071;45.062;7.356;2023-05-02T16:25:38;95057.19;;;23.19;39.76
49999;BME280;68071;45.062;7.356;2023-05-02T16:28:42;95072.03;;;23.35;40.18
49999;BME280;68071;45.062;7.356;2023-05-02T16:31:47;95070.69;;;23.56;39.34
49999;BME280;68071;45.062;7.356;2023-05-02T16:34:51;95063.44;;;23.76;39.53
49999;BME280;68071;45.062;7.356;2023-05-02T16:37:55;95073.34;;;23.39;40.47
49999;BME280;68071;45.062;7.356;2023-05-02T16:41:02;95074.28;;;23.31;39.40
49999;BME280;68071;45.062;7.356;2023-05-02T16:44:07;95078.63;;;23.52;40.70
49999;BME280;68071;45.062;7.356;2023-05-02T16:47:12;95083.38;;;23.67;40.24
49999;BME280;68071;45.062;7.356;2023-05-02T16:50:16;95076.13;;;24.51;37.68
49999;BME280;68071;45.062;7.356;2023-05-02T16:53:21;95088.09;;;25.87;35.33
49999;BME280;68071;45.062;7.356;2023-05-02T16:56:25;95089.13;;;25.90;36.46
49999;BME280;68071;45.062;7.356;2023-05-02T16:59:29;95094.03;;;28.04;31.89